Time;durP1;ratioP1;P1;durP2;ratioP2;P2;SDS_P1;SDS_P2;PMS_P1;PMS_P2;Temp;Humidity;BMP_temperature;BMP_pressure;BME280_temperature;BME280_humidity;BME280_pressure;Samples;Min_cycle;Max_cycle;Signal;HPM_P1;HPM_P2
2024/01/27 00:02:24;;;;;;;2.83;1.42;;;3.30;99.90;;;;;;5031390;28;20026;-74
2024/01/27 00:04:49;;;;;;;2.28;1.17;;;3.30;99.90;;;;;;5031457;28;20047;-74
2024/01/27 00:07:17;;;;;;;3.25;1.20;;;3.20;99.90;;;;;;5031649;28;20029;-74
2024/01/27 00:09:43;;;;;;;3.55;1.38;;;3.00;99.90;;;;;;5031020;28;20061;-75
2024/01/27 00:12:09;;;;;;;2.92;1.48;;;2.90;99.90;;;;;;5031328;28;20057;-74
2024/01/27 00:14:38;;;;;;;2.40;1.63;;;2.90;99.90;;;;;;5029982;28;20044;-74
2024/01/27 00:17:04;;;;;;;3.67;2.10;;;2.80;99.90;;;;;;5031273;28;20025;-74
2024/01/27 00:19:30;;;;;;;3.92;2.15;;;2.70;99.90;;;;;;5029852;28;20025;-74
2024/01/27 00:21:55;;;;;;;4.00;1.60;;;2.60;99.90;;;;;;5031191;28;20503;-74
2024/01/27 00:24:21;;;;;;;2.53;1.73;;;2.70;99.90;;;;;;5031347;28;20467;-74
2024/01/27 00:26:46;;;;;;;3.38;1.85;;;2.60;99.90;;;;;;5031396;28;20048;-75
2024/01/27 00:29:12;;;;;;;3.88;1.60;;;2.60;99.90;;;;;;5031218;28;20394;-75
2024/01/27 00:31:38;;;;;;;2.53;1.20;;;2.60;99.90;;;;;;5030496;28;20526;-75
2024/01/27 00:34:03;;;;;;;4.78;1.60;;;2.50;99.90;;;;;;5030963;28;20077;-75
2024/01/27 00:36:29;;;;;;;2.42;1.38;;;2.50;99.90;;;;;;5031235;28;20025;-74
2024/01/27 00:38:55;;;;;;;4.38;1.63;;;2.50;99.90;;;;;;5044315;28;20029;-75
2024/01/27 00:41:20;;;;;;;2.85;1.30;;;2.40;99.90;;;;;;5050758;28;20060;-75
2024/01/27 00:43:46;;;;;;;5.68;2.25;;;2.40;99.90;;;;;;5050622;28;20029;-75
2024/01/27 00:46:12;;;;;;;2.80;1.67;;;2.40;99.90;;;;;;5050967;28;20076;-74
2024/01/27 00:48:37;;;;;;;4.80;2.08;;;2.40;99.90;;;;;;5050530;28;20037;-74
2024/01/27 00:51:03;;;;;;;4.18;2.30;;;2.40;99.90;;;;;;5050590;28;20071;-74
2024/01/27 00:53:29;;;;;;;3.63;1.55;;;2.40;99.90;;;;;;5050304;28;20048;-75
2024/01/27 00:55:55;;;;;;;2.65;1.27;;;2.40;99.90;;;;;;5050708;28;20067;-75
2024/01/27 00:58:20;;;;;;;3.42;1.33;;;2.30;99.90;;;;;;5050799;28;20025;-74
2024/01/27 01:00:46;;;;;;;5.43;1.25;;;2.30;99.90;;;;;;5050426;28;20112;-75
2024/01/27 01:03:12;;;;;;;3.10;1.48;;;2.30;99.90;;;;;;5050335;28;20053;-75
2024/01/27 01:05:37;;;;;;;3.13;1.10;;;2.20;99.90;;;;;;5050415;28;20073;-75
2024/01/27 01:08:03;;;;;;;2.50;1.38;;;2.20;99.90;;;;;;5048147;28;20036;-75
2024/01/27 01:10:29;;;;;;;3.53;1.48;;;2.10;99.90;;;;;;5029211;28;20029;-75
2024/01/27 01:12:54;;;;;;;3.63;1.80;;;2.10;99.90;;;;;;5030431;28;20056;-75
2024/01/27 01:15:20;;;;;;;3.13;2.00;;;2.10;99.90;;;;;;5030340;28;20040;-74
2024/01/27 01:17:46;;;;;;;4.22;1.77;;;2.10;99.90;;;;;;5030299;28;20028;-75
2024/01/27 01:20:12;;;;;;;4.30;1.80;;;2.10;99.90;;;;;;5030400;28;20510;-74
2024/01/27 01:22:37;;;;;;;4.93;1.50;;;2.00;99.90;;;;;;5030537;28;20497;-75
2024/01/27 01:25:03;;;;;;;3.95;1.42;;;2.00;99.90;;;;;;5030017;28;20078;-75
2024/01/27 01:27:29;;;;;;;3.45;1.60;;;2.00;99.90;;;;;;5030212;28;20033;-74
2024/01/27 01:29:54;;;;;;;2.38;1.40;;;2.00;99.90;;;;;;5030216;28;20033;-75
2024/01/27 01:32:20;;;;;;;4.90;1.63;;;2.00;99.90;;;;;;5012679;28;20059;-75
2024/01/27 01:34:47;;;;;;;3.65;1.85;;;2.00;99.90;;;;;;5030489;28;20026;-75
2024/01/27 01:37:13;;;;;;;4.15;2.25;;;2.00;99.90;;;;;;5030200;28;20531;-75
2024/01/27 01:39:39;;;;;;;4.05;2.08;;;2.00;99.90;;;;;;5029771;28;20034;-75
2024/01/27 01:42:05;;;;;;;4.30;2.28;;;2.00;99.90;;;;;;5030030;28;20422;-74
2024/01/27 01:44:33;;;;;;;4.95;2.55;;;2.00;99.90;;;;;;5031461;28;20061;-75
2024/01/27 01:46:59;;;;;;;3.67;2.10;;;2.00;99.90;;;;;;5033811;28;20026;-74
2024/01/27 01:49:26;;;;;;;3.53;1.75;;;2.00;99.90;;;;;;5033774;28;20066;-75
2024/01/27 01:51:52;;;;;;;2.67;1.55;;;2.00;99.90;;;;;;5032315;28;20032;-75
2024/01/27 01:54:19;;;;;;;2.97;1.25;;;1.90;99.90;;;;;;5033218;28;20038;-74
2024/01/27 01:56:44;;;;;;;3.00;1.40;;;1.90;99.90;;;;;;5033652;28;20034;-75
2024/01/27 01:59:10;;;;;;;3.15;1.40;;;1.90;99.90;;;;;;5033999;28;20036;-77
2024/01/27 02:01:36;;;;;;;4.10;1.20;;;1.80;99.90;;;;;;5033624;28;20026;-77
2024/01/27 02:04:04;;;;;;;1.90;1.20;;;1.90;99.90;;;;;;5033528;28;20467;-77
2024/01/27 02:06:29;;;;;;;2.28;1.20;;;1.80;99.90;;;;;;5033668;28;20072;-77
2024/01/27 02:08:55;;;;;;;2.08;1.27;;;1.80;99.90;;;;;;5032855;28;20042;-77
2024/01/27 02:11:21;;;;;;;2.83;1.52;;;1.80;99.90;;;;;;5033151;28;20051;-77
2024/01/27 02:13:47;;;;;;;6.68;2.30;;;1.80;99.90;;;;;;5033399;28;20049;-77
2024/01/27 02:16:13;;;;;;;5.05;2.88;;;1.80;99.90;;;;;;5033022;28;20501;-76
2024/01/27 02:18:39;;;;;;;6.43;2.95;;;1.80;99.90;;;;;;5033024;28;20112;-77
2024/01/27 02:21:04;;;;;;;5.00;2.47;;;1.90;99.90;;;;;;5033298;28;20036;-77
2024/01/27 02:23:30;;;;;;;5.35;2.88;;;1.90;99.90;;;;;;5032718;28;20475;-77
2024/01/27 02:25:56;;;;;;;5.13;3.53;;;1.90;99.90;;;;;;5032944;28;20025;-76
2024/01/27 02:28:24;;;;;;;4.88;2.65;;;1.80;99.90;;;;;;5032878;28;20030;-76
2024/01/27 02:30:50;;;;;;;4.20;2.55;;;1.90;99.90;;;;;;5031893;28;20503;-76
2024/01/27 02:33:16;;;;;;;3.65;1.98;;;1.90;99.90;;;;;;5032755;28;20065;-76
2024/01/27 02:35:43;;;;;;;3.55;2.22;;;1.80;99.90;;;;;;5032797;28;20030;-76
2024/01/27 02:38:09;;;;;;;4.20;2.35;;;1.80;99.90;;;;;;5032722;28;20025;-77
2024/01/27 02:40:34;;;;;;;3.92;2.08;;;1.80;99.90;;;;;;5032490;28;20029;-77
2024/01/27 02:43:31;;;;;;;3.38;2.00;;;1.80;99.90;;;;;;5032473;28;20117;-77
2024/01/27 02:45:56;;;;;;;5.25;2.58;;;1.80;99.90;;;;;;5032651;28;20418;-76
2024/01/27 02:48:22;;;;;;;5.43;2.70;;;1.80;99.90;;;;;;5032820;28;20025;-77
2024/01/27 02:50:48;;;;;;;5.13;2.33;;;1.80;99.90;;;;;;5031708;28;20038;-76
2024/01/27 02:53:13;;;;;;;5.30;2.28;;;1.90;99.90;;;;;;5032564;28;20033;-76
2024/01/27 02:55:39;;;;;;;2.97;1.98;;;1.80;99.90;;;;;;5032845;28;20029;-76
2024/01/27 02:58:05;;;;;;;3.40;2.05;;;1.80;99.90;;;;;;5031551;28;20030;-76
2024/01/27 03:00:30;;;;;;;3.80;2.30;;;1.80;99.90;;;;;;5032448;28;20455;-76
2024/01/27 03:02:58;;;;;;;4.38;2.10;;;1.80;99.90;;;;;;5032317;28;20394;-77
2024/01/27 03:05:23;;;;;;;5.90;2.55;;;1.80;99.90;;;;;;5031247;28;20026;-76
2024/01/27 03:07:49;;;;;;;4.80;2.40;;;1.80;99.90;;;;;;5032248;28;20039;-77
2024/01/27 03:10:15;;;;;;;4.68;2.60;;;1.70;99.90;;;;;;5032284;28;20026;-77
2024/01/27 03:12:40;;;;;;;4.05;2.38;;;1.70;99.90;;;;;;5031945;28;20061;-77
2024/01/27 03:15:06;;;;;;;5.38;2.58;;;1.80;99.90;;;;;;5032155;28;20036;-76
2024/01/27 03:17:32;;;;;;;5.05;2.58;;;1.80;99.90;;;;;;5031992;28;20033;-77
2024/01/27 03:19:58;;;;;;;5.60;2.50;;;1.80;99.90;;;;;;5032420;28;20041;-77
2024/01/27 03:22:23;;;;;;;4.60;2.30;;;1.80;99.90;;;;;;5030935;28;20106;-76
2024/01/27 03:24:51;;;;;;;4.15;2.75;;;1.70;99.90;;;;;;5032042;28;20024;-77
2024/01/27 03:27:17;;;;;;;4.00;1.83;;;1.70;99.90;;;;;;5030809;28;20364;-77
2024/01/27 03:29:42;;;;;;;3.40;1.90;;;1.80;99.90;;;;;;5031925;28;20026;-77
2024/01/27 03:32:08;;;;;;;3.42;1.88;;;1.70;99.90;;;;;;5032051;28;20082;-77
2024/01/27 03:34:34;;;;;;;4.32;1.90;;;1.70;99.90;;;;;;5032474;28;20033;-77
2024/01/27 03:36:59;;;;;;;4.25;1.95;;;1.70;99.90;;;;;;5032172;28;20104;-77
2024/01/27 03:39:25;;;;;;;3.42;2.00;;;1.70;99.90;;;;;;5031130;28;20051;-77
2024/01/27 03:41:51;;;;;;;3.28;1.58;;;1.70;99.90;;;;;;5032323;28;20123;-77
2024/01/27 03:44:16;;;;;;;2.95;1.63;;;1.60;99.90;;;;;;5032205;28;20116;-77
2024/01/27 03:46:42;;;;;;;4.07;1.83;;;1.70;99.90;;;;;;5032169;28;20029;-77
2024/01/27 03:49:08;;;;;;;3.45;1.73;;;1.70;99.90;;;;;;5032446;28;20096;-77
2024/01/27 03:51:33;;;;;;;6.15;1.58;;;1.70;99.90;;;;;;5032383;28;20026;-77
2024/01/27 03:53:59;;;;;;;2.88;1.75;;;1.60;99.90;;;;;;5033391;28;20502;-78
2024/01/27 03:56:25;;;;;;;3.97;1.90;;;1.60;99.90;;;;;;5033386;28;20133;-78
2024/01/27 03:58:50;;;;;;;3.22;2.00;;;1.60;99.90;;;;;;5032142;28;20037;-77
2024/01/27 04:01:16;;;;;;;4.55;2.03;;;1.60;99.90;;;;;;5032669;28;20032;-78
2024/01/27 04:03:42;;;;;;;5.28;2.28;;;1.60;99.90;;;;;;5032833;28;20030;-78
2024/01/27 04:06:07;;;;;;;4.72;2.25;;;1.60;99.90;;;;;;5032302;28;20053;-78
2024/01/27 04:08:33;;;;;;;5.72;2.33;;;1.60;99.90;;;;;;5033056;28;20040;-78
2024/01/27 04:10:59;;;;;;;4.93;2.30;;;1.60;99.90;;;;;;5032332;28;20498;-78
2024/01/27 04:13:24;;;;;;;3.30;1.95;;;1.60;99.90;;;;;;5032408;28;20483;-78
2024/01/27 04:15:51;;;;;;;3.42;1.70;;;1.60;99.90;;;;;;5033896;28;20033;-78
2024/01/27 04:18:17;;;;;;;4.25;1.83;;;1.60;99.90;;;;;;5032987;28;20549;-78
2024/01/27 04:20:43;;;;;;;3.35;1.75;;;1.60;99.90;;;;;;5033359;28;20057;-78
2024/01/27 04:23:09;;;;;;;3.15;1.95;;;1.60;99.90;;;;;;5033096;28;20115;-77
2024/01/27 04:25:34;;;;;;;3.97;2.05;;;1.60;99.90;;;;;;5031519;28;20078;-78
2024/01/27 04:28:00;;;;;;;4.40;1.73;;;1.60;99.90;;;;;;5032508;28;20052;-77
2024/01/27 04:30:26;;;;;;;4.47;2.42;;;1.70;99.90;;;;;;5033893;28;20022;-78
2024/01/27 04:32:51;;;;;;;4.30;2.25;;;1.70;99.90;;;;;;5032435;28;20120;-78
2024/01/27 04:35:17;;;;;;;5.45;2.38;;;1.60;99.90;;;;;;5032091;28;20060;-78
2024/01/27 04:37:44;;;;;;;6.00;3.50;;;1.60;99.90;;;;;;5031399;28;20089;-78
2024/01/27 04:40:10;;;;;;;13.63;5.78;;;1.60;99.90;;;;;;5032484;28;20026;-78
2024/01/27 04:42:39;;;;;;;13.07;5.32;;;1.60;99.90;;;;;;5032699;28;20026;-77
2024/01/27 04:45:06;;;;;;;11.82;6.38;;;1.60;99.90;;;;;;5032123;28;20022;-78
2024/01/27 04:47:32;;;;;;;10.85;5.18;;;1.60;99.90;;;;;;5030750;28;20097;-77
2024/01/27 04:49:58;;;;;;;7.63;4.20;;;1.50;99.90;;;;;;5031412;28;20057;-77
2024/01/27 04:52:23;;;;;;;9.55;4.72;;;1.50;99.90;;;;;;5030911;28;20026;-78
2024/01/27 04:54:49;;;;;;;9.15;4.22;;;1.50;99.90;;;;;;5032672;28;20022;-77
2024/01/27 04:57:16;;;;;;;7.32;3.50;;;1.50;99.90;;;;;;5032527;28;20061;-77
2024/01/27 04:59:41;;;;;;;5.93;3.30;;;1.50;99.90;;;;;;5031343;28;20034;-77
2024/01/27 05:02:07;;;;;;;6.13;2.85;;;1.50;99.90;;;;;;5032286;28;20021;-77
2024/01/27 05:04:33;;;;;;;4.60;2.50;;;1.50;99.90;;;;;;5031637;28;20029;-77
2024/01/27 05:06:59;;;;;;;5.68;2.67;;;1.50;99.90;;;;;;5030193;28;20402;-77
2024/01/27 05:09:25;;;;;;;5.68;3.08;;;1.50;99.90;;;;;;5031227;28;20033;-77
2024/01/27 05:11:53;;;;;;;7.47;3.20;;;1.50;99.90;;;;;;5030593;28;20029;-76
2024/01/27 05:14:19;;;;;;;5.22;3.42;;;1.60;99.90;;;;;;5030554;28;20037;-76
2024/01/27 05:16:44;;;;;;;5.30;2.97;;;1.50;99.90;;;;;;5029705;28;20033;-76
2024/01/27 05:19:11;;;;;;;6.25;3.28;;;1.50;99.90;;;;;;5030275;28;20475;-77
2024/01/27 05:21:38;;;;;;;7.25;3.70;;;1.50;99.90;;;;;;5030476;28;20064;-77
2024/01/27 05:24:04;;;;;;;6.90;3.08;;;1.50;99.90;;;;;;5030645;28;20554;-77
2024/01/27 05:26:29;;;;;;;5.78;3.10;;;1.50;99.90;;;;;;5030199;28;20052;-77
2024/01/27 05:28:55;;;;;;;5.20;3.13;;;1.40;99.90;;;;;;5029893;28;20033;-77
2024/01/27 05:31:21;;;;;;;5.13;3.15;;;1.40;99.90;;;;;;5030826;28;20032;-77
2024/01/27 05:33:46;;;;;;;5.57;3.53;;;1.40;99.90;;;;;;5030396;28;20057;-77
2024/01/27 05:36:12;;;;;;;5.68;4.10;;;1.40;99.90;;;;;;5030477;28;20088;-77
2024/01/27 05:38:38;;;;;;;7.07;4.60;;;1.40;99.90;;;;;;5030291;28;20038;-77
2024/01/27 05:41:04;;;;;;;6.28;4.60;;;1.50;99.90;;;;;;5029120;28;20129;-77
2024/01/27 05:43:29;;;;;;;6.15;3.85;;;1.50;99.90;;;;;;5030157;28;20030;-77
2024/01/27 05:45:55;;;;;;;7.85;4.70;;;1.40;99.90;;;;;;5030230;28;20478;-77
2024/01/27 05:48:21;;;;;;;8.50;5.97;;;1.40;99.90;;;;;;5030117;28;20061;-77
2024/01/27 05:51:00;;;;;;;6.00;5.15;;;1.40;99.90;;;;;;5030252;28;20109;-77
2024/01/27 05:53:26;;;;;;;7.72;4.60;;;1.40;99.90;;;;;;5030322;28;20037;-77
2024/01/27 05:55:53;;;;;;;6.20;4.00;;;1.40;99.90;;;;;;5030862;28;20343;-77
2024/01/27 05:58:22;;;;;;;5.45;3.22;;;1.40;99.90;;;;;;5028879;28;20084;-77
2024/01/27 06:00:48;;;;;;;7.50;3.53;;;1.40;99.90;;;;;;5028845;28;20397;-77
2024/01/27 06:03:14;;;;;;;5.50;2.90;;;1.40;99.90;;;;;;5029986;28;20141;-77
2024/01/27 06:05:42;;;;;;;5.95;2.90;;;1.40;99.90;;;;;;5028939;28;20037;-77
2024/01/27 06:08:08;;;;;;;5.18;3.13;;;1.40;99.90;;;;;;5029852;28;20034;-77
2024/01/27 06:10:33;;;;;;;5.90;2.85;;;1.40;99.90;;;;;;5030076;28;20034;-77
2024/01/27 06:12:59;;;;;;;10.75;4.28;;;1.40;99.90;;;;;;5029770;28;20044;-77
2024/01/27 06:15:25;;;;;;;10.82;7.03;;;1.40;99.90;;;;;;5030552;28;20029;-76
2024/01/27 06:17:50;;;;;;;11.48;7.20;;;1.40;99.90;;;;;;5028517;28;20041;-76
2024/01/27 06:20:18;;;;;;;9.63;5.95;;;1.40;99.90;;;;;;5029788;28;20030;-77
2024/01/27 06:22:43;;;;;;;9.52;6.32;;;1.40;99.90;;;;;;5028528;28;20037;-77
2024/01/27 06:25:10;;;;;;;11.23;6.68;;;1.40;99.90;;;;;;5029989;28;20030;-77
2024/01/27 06:27:37;;;;;;;10.60;5.70;;;1.40;99.90;;;;;;5028984;28;20017;-77
2024/01/27 06:30:03;;;;;;;8.77;5.40;;;1.40;99.90;;;;;;5030219;28;20028;-77
2024/01/27 06:32:29;;;;;;;9.82;5.10;;;1.40;99.90;;;;;;5033647;28;20495;-77
2024/01/27 06:34:55;;;;;;;9.95;4.95;;;1.30;99.90;;;;;;5033798;28;20030;-77
2024/01/27 06:37:20;;;;;;;6.32;4.00;;;1.30;99.90;;;;;;5033258;28;20026;-77
2024/01/27 06:39:46;;;;;;;6.63;3.10;;;1.30;99.90;;;;;;5031591;28;20070;-77
2024/01/27 06:42:11;;;;;;;4.70;2.95;;;1.30;99.90;;;;;;5033318;28;20030;-77
2024/01/27 06:44:37;;;;;;;5.15;2.83;;;1.30;99.90;;;;;;5032378;28;20067;-77
2024/01/27 06:47:03;;;;;;;4.55;3.10;;;1.30;99.90;;;;;;5033338;28;20033;-76
2024/01/27 06:49:28;;;;;;;5.03;3.05;;;1.30;99.90;;;;;;5032605;28;20030;-77
2024/01/27 06:51:54;;;;;;;7.28;3.17;;;1.30;99.90;;;;;;5031528;28;20030;-76
2024/01/27 06:54:20;;;;;;;7.03;3.47;;;1.30;99.90;;;;;;5031327;28;20031;-77
2024/01/27 06:56:45;;;;;;;6.47;3.42;;;1.30;99.90;;;;;;5031462;28;20104;-76
2024/01/27 06:59:11;;;;;;;6.57;3.63;;;1.30;99.90;;;;;;5032498;28;20049;-77
2024/01/27 07:01:37;;;;;;;6.72;3.75;;;1.30;99.90;;;;;;5032536;28;20030;-77
2024/01/27 07:04:03;;;;;;;4.07;2.90;;;1.30;99.90;;;;;;5032723;28;20041;-77
2024/01/27 07:06:29;;;;;;;7.75;3.55;;;1.30;99.90;;;;;;5032861;28;20053;-77
2024/01/27 07:08:55;;;;;;;7.00;3.60;;;1.30;99.90;;;;;;5032529;28;20033;-77
2024/01/27 07:11:20;;;;;;;7.47;3.38;;;1.20;99.90;;;;;;5032425;28;20021;-77
2024/01/27 07:13:46;;;;;;;6.95;3.97;;;1.30;99.90;;;;;;5032593;28;20487;-76
2024/01/27 07:16:12;;;;;;;9.10;4.78;;;1.30;99.90;;;;;;5032694;28;20032;-76
2024/01/27 07:18:37;;;;;;;8.90;4.93;;;1.30;99.90;;;;;;5032896;28;20034;-76
2024/01/27 07:21:03;;;;;;;10.05;4.93;;;1.30;99.90;;;;;;5032446;28;20034;-77
2024/01/27 07:23:29;;;;;;;13.00;6.38;;;1.20;99.90;;;;;;5031229;28;20037;-77
2024/01/27 07:25:54;;;;;;;12.13;6.20;;;1.30;99.90;;;;;;5032540;28;20068;-77
2024/01/27 07:28:20;;;;;;;13.00;7.03;;;1.20;99.90;;;;;;5031055;28;20033;-77
2024/01/27 07:30:46;;;;;;;15.00;6.93;;;1.20;99.90;;;;;;5032739;28;20030;-77
2024/01/27 07:33:11;;;;;;;11.88;6.15;;;1.30;99.90;;;;;;5034985;28;20542;-78
2024/01/27 07:35:37;;;;;;;16.38;6.65;;;1.30;99.90;;;;;;5035604;28;20402;-78
2024/01/27 07:38:03;;;;;;;16.80;6.80;;;1.30;99.90;;;;;;5035151;28;20075;-78
2024/01/27 07:40:29;;;;;;;16.15;8.13;;;1.30;99.90;;;;;;5034827;28;20041;-78
2024/01/27 07:42:54;;;;;;;16.98;8.00;;;1.30;99.90;;;;;;5017345;28;20025;-78
2024/01/27 07:45:20;;;;;;;16.50;7.68;;;1.20;99.90;;;;;;5034538;28;20364;-78
2024/01/27 07:47:45;;;;;;;13.23;6.72;;;1.20;99.90;;;;;;5033904;28;20456;-77
2024/01/27 07:50:11;;;;;;;13.32;6.63;;;1.20;99.90;;;;;;5033647;28;20036;-77
2024/01/27 07:52:37;;;;;;;10.88;5.60;;;1.30;99.90;;;;;;5033870;28;20030;-77
2024/01/27 07:55:03;;;;;;;8.38;5.28;;;1.30;99.90;;;;;;5036463;28;20029;-78
2024/01/27 07:57:28;;;;;;;10.65;4.97;;;1.30;99.90;;;;;;5037259;28;20056;-78
2024/01/27 07:59:54;;;;;;;7.78;4.70;;;1.30;99.90;;;;;;5036928;28;20033;-76
2024/01/27 08:02:20;;;;;;;8.38;5.60;;;1.30;99.90;;;;;;5014145;28;20034;-76
2024/01/27 08:04:45;;;;;;;11.75;5.25;;;1.30;99.90;;;;;;5030439;28;20513;-76
2024/01/27 08:07:14;;;;;;;10.98;5.88;;;1.30;99.90;;;;;;5031659;28;20363;-76
2024/01/27 08:09:40;;;;;;;8.38;5.22;;;1.30;99.90;;;;;;5031609;28;20050;-76
2024/01/27 08:12:06;;;;;;;11.80;6.20;;;1.30;99.90;;;;;;5031623;28;20494;-76
2024/01/27 08:14:35;;;;;;;9.20;5.47;;;1.30;99.90;;;;;;5031432;28;20032;-75
2024/01/27 08:17:03;;;;;;;13.63;6.05;;;1.40;99.90;;;;;;5031653;28;20037;-76
2024/01/27 08:19:28;;;;;;;12.95;6.05;;;1.40;99.90;;;;;;5031306;28;20034;-75
2024/01/27 08:21:54;;;;;;;21.35;8.23;;;1.40;99.90;;;;;;5031233;28;20497;-76
2024/01/27 08:24:20;;;;;;;22.52;9.20;;;1.50;99.90;;;;;;5029890;28;20034;-76
2024/01/27 08:26:48;;;;;;;13.88;7.20;;;1.60;99.90;;;;;;5031503;28;20033;-76
2024/01/27 08:29:14;;;;;;;14.73;7.07;;;1.60;99.90;;;;;;5029801;28;20029;-76
2024/01/27 08:31:39;;;;;;;12.40;6.88;;;1.70;99.90;;;;;;5031176;28;20032;-76
2024/01/27 08:34:05;;;;;;;10.93;6.60;;;1.70;99.90;;;;;;5029900;28;20510;-76
2024/01/27 08:36:31;;;;;;;14.38;7.65;;;1.80;99.90;;;;;;5031185;28;20048;-74
2024/01/27 08:38:56;;;;;;;13.30;7.05;;;1.90;99.90;;;;;;5013451;28;20029;-75
2024/01/27 08:41:22;;;;;;;14.15;7.03;;;1.90;99.90;;;;;;5030974;28;20069;-76
2024/01/27 08:43:48;;;;;;;11.50;6.60;;;2.00;99.90;;;;;;5013081;28;20429;-75
2024/01/27 08:46:15;;;;;;;12.00;7.45;;;2.00;99.90;;;;;;5030877;28;20025;-75
2024/01/27 08:48:41;;;;;;;10.45;6.85;;;2.10;99.90;;;;;;5030880;28;20022;-75
2024/01/27 08:51:12;;;;;;;13.02;6.68;;;2.10;99.90;;;;;;5030105;28;20501;-75
2024/01/27 08:53:38;;;;;;;10.35;6.40;;;2.20;99.90;;;;;;5030658;28;20025;-76
2024/01/27 08:56:04;;;;;;;9.38;6.30;;;2.30;99.90;;;;;;5031110;28;20044;-76
2024/01/27 08:58:31;;;;;;;13.82;7.72;;;2.30;99.90;;;;;;5030753;28;20033;-75
2024/01/27 09:00:56;;;;;;;13.40;7.28;;;2.40;99.90;;;;;;5030708;28;20072;-76
2024/01/27 09:03:22;;;;;;;11.82;6.72;;;2.50;99.90;;;;;;5030973;28;20116;-76
2024/01/27 09:05:48;;;;;;;15.38;8.05;;;2.50;99.90;;;;;;5030587;28;20074;-75
2024/01/27 09:08:15;;;;;;;12.18;6.28;;;2.60;99.90;;;;;;5030606;28;20413;-76
2024/01/27 09:10:41;;;;;;;11.82;6.50;;;2.60;99.90;;;;;;5029327;28;20487;-75
2024/01/27 09:13:07;;;;;;;12.02;6.13;;;2.70;99.90;;;;;;5030620;28;20117;-75
2024/01/27 09:15:33;;;;;;;11.13;5.95;;;2.80;99.90;;;;;;5012982;28;20033;-75
2024/01/27 09:17:58;;;;;;;10.13;6.00;;;2.80;99.90;;;;;;5030717;28;20040;-76
2024/01/27 09:20:24;;;;;;;9.73;5.85;;;2.90;99.90;;;;;;5030520;28;20113;-75
2024/01/27 09:22:50;;;;;;;9.18;5.53;;;2.90;99.90;;;;;;5030253;28;20040;-75
2024/01/27 09:25:16;;;;;;;7.05;4.90;;;3.00;99.90;;;;;;5029137;28;20106;-75
2024/01/27 09:27:42;;;;;;;10.90;5.10;;;3.00;99.90;;;;;;5030248;28;20021;-75
2024/01/27 09:30:08;;;;;;;7.90;5.10;;;3.10;99.90;;;;;;5030358;28;20435;-76
2024/01/27 09:32:34;;;;;;;7.43;4.93;;;3.10;99.90;;;;;;5030200;28;20026;-75
2024/01/27 09:35:00;;;;;;;8.55;4.78;;;3.10;99.90;;;;;;5030589;28;20364;-76
2024/01/27 09:37:25;;;;;;;7.35;4.80;;;3.10;99.90;;;;;;5031009;28;20126;-76
2024/01/27 09:39:51;;;;;;;8.82;5.57;;;3.10;99.90;;;;;;5028973;28;20048;-76
2024/01/27 09:42:20;;;;;;;10.05;6.13;;;3.20;99.90;;;;;;5028974;28;20093;-75
2024/01/27 09:44:49;;;;;;;10.70;5.85;;;3.20;99.90;;;;;;5030620;28;20026;-76
2024/01/27 09:47:19;;;;;;;8.90;5.43;;;3.20;99.90;;;;;;5012556;28;20052;-76
2024/01/27 09:49:46;;;;;;;11.52;6.47;;;3.20;99.90;;;;;;5030123;28;20060;-76
2024/01/27 09:52:12;;;;;;;8.48;5.05;;;3.30;99.90;;;;;;5030137;28;20029;-76
2024/01/27 09:54:40;;;;;;;10.57;6.30;;;3.30;99.90;;;;;;5029499;28;20167;-75
2024/01/27 09:57:07;;;;;;;10.02;5.53;;;3.40;99.90;;;;;;5029935;28;20036;-76
2024/01/27 09:59:34;;;;;;;11.20;5.68;;;3.40;99.90;;;;;;5029095;28;20029;-76
2024/01/27 10:02:02;;;;;;;8.02;5.35;;;3.50;99.90;;;;;;5029917;28;20112;-76
2024/01/27 10:04:29;;;;;;;9.02;5.75;;;3.50;99.90;;;;;;5028611;28;20021;-75
2024/01/27 10:06:57;;;;;;;10.48;5.90;;;3.60;99.90;;;;;;5031793;28;20045;-76
2024/01/27 10:09:23;;;;;;;8.63;5.15;;;3.70;99.90;;;;;;5033371;28;20102;-76
2024/01/27 10:11:49;;;;;;;10.52;5.50;;;3.80;99.90;;;;;;5032096;28;20437;-76
2024/01/27 10:14:15;;;;;;;9.02;4.95;;;3.90;99.90;;;;;;5033227;28;20022;-76
2024/01/27 10:16:45;;;;;;;12.15;5.55;;;4.00;99.90;;;;;;5032030;28;20056;-76
2024/01/27 10:19:18;;;;;;;7.85;3.67;;;4.00;99.90;;;;;;5033191;28;20478;-76
2024/01/27 10:21:48;;;;;;;7.07;3.85;;;4.10;99.90;;;;;;5031858;28;20041;-76
2024/01/27 10:24:14;;;;;;;7.55;4.40;;;4.20;99.90;;;;;;5033331;28;20390;-76
2024/01/27 10:26:40;;;;;;;5.85;4.38;;;4.20;99.90;;;;;;5033117;28;20099;-76
2024/01/27 10:29:06;;;;;;;8.68;4.38;;;4.20;99.90;;;;;;5015574;28;20483;-76
2024/01/27 10:31:34;;;;;;;7.63;4.40;;;4.30;99.90;;;;;;5033434;28;20387;-76
2024/01/27 10:34:04;;;;;;;7.40;4.18;;;4.40;99.90;;;;;;5033296;28;20514;-76
2024/01/27 10:36:44;;;;;;;7.60;4.17;;;4.50;99.90;;;;;;5033003;28;20029;-76
2024/01/27 10:39:23;;;;;;;8.25;4.28;;;4.50;99.90;;;;;;5032024;28;20281;-76
2024/01/27 10:41:50;;;;;;;9.23;4.50;;;4.60;99.90;;;;;;5033064;28;20483;-76
2024/01/27 10:44:18;;;;;;;8.18;4.68;;;4.60;99.90;;;;;;5031595;28;20036;-75
2024/01/27 10:46:46;;;;;;;8.52;4.68;;;4.60;99.90;;;;;;5033239;28;20018;-75
2024/01/27 10:49:16;;;;;;;9.23;6.00;;;4.70;99.90;;;;;;5032731;28;20490;-75
2024/01/27 10:52:06;;;;;;;13.30;6.50;;;4.70;99.90;;;;;;5033409;28;20116;-75
2024/01/27 10:54:33;;;;;;;10.57;5.85;;;4.70;99.90;;;;;;5033774;28;20036;-75
2024/01/27 10:57:01;;;;;;;13.60;5.75;;;4.70;99.90;;;;;;5033326;28;20053;-75
2024/01/27 10:59:30;;;;;;;12.05;4.95;;;4.70;99.90;;;;;;5031766;28;20028;-75
2024/01/27 11:01:56;;;;;;;7.57;4.35;;;4.70;99.90;;;;;;5031396;28;20061;-75
2024/01/27 11:04:22;;;;;;;7.82;4.72;;;4.70;99.90;;;;;;5032458;28;20494;-76
2024/01/27 11:06:49;;;;;;;8.90;5.22;;;4.70;99.90;;;;;;5031227;28;20494;-76
2024/01/27 11:09:15;;;;;;;11.02;5.28;;;4.70;99.90;;;;;;5032486;28;20022;-76
2024/01/27 11:11:45;;;;;;;9.02;5.75;;;4.70;99.90;;;;;;5032361;28;20031;-76
2024/01/27 11:14:11;;;;;;;8.60;5.20;;;4.70;99.90;;;;;;5032326;28;20039;-75
2024/01/27 11:16:43;;;;;;;8.35;5.18;;;4.70;99.90;;;;;;5031996;28;20108;-75
2024/01/27 11:19:11;;;;;;;7.97;4.90;;;4.70;99.90;;;;;;5031060;28;20034;-76
2024/01/27 11:21:37;;;;;;;7.05;4.38;;;4.80;99.90;;;;;;5031027;28;20114;-76
2024/01/27 11:24:15;;;;;;;7.70;4.15;;;4.80;99.90;;;;;;5032065;28;20513;-76
2024/01/27 11:26:42;;;;;;;6.03;4.35;;;4.90;99.90;;;;;;5032494;28;20428;-76
2024/01/27 11:29:19;;;;;;;7.25;4.82;;;4.90;99.90;;;;;;5032166;28;20051;-76
2024/01/27 11:31:45;;;;;;;7.25;4.80;;;5.00;99.90;;;;;;5030810;28;20030;-75
2024/01/27 11:34:17;;;;;;;8.85;4.72;;;5.10;99.90;;;;;;5031981;28;20033;-76
2024/01/27 11:36:44;;;;;;;9.43;5.10;;;5.20;99.90;;;;;;5031983;28;20033;-76
2024/01/27 11:39:29;;;;;;;8.02;4.90;;;5.20;99.90;;;;;;5030562;28;20037;-76
2024/01/27 11:42:12;;;;;;;10.20;4.55;;;5.30;99.90;;;;;;5031916;28;20410;-76
2024/01/27 11:44:38;;;;;;;11.38;5.18;;;5.40;99.90;;;;;;5032527;28;20029;-75
2024/01/27 11:47:06;;;;;;;10.38;4.70;;;5.40;99.90;;;;;;5014288;28;20037;-75
2024/01/27 11:49:33;;;;;;;10.55;4.05;;;5.50;99.90;;;;;;5032701;28;20075;-76
2024/01/27 11:52:00;;;;;;;8.50;3.85;;;5.60;99.90;;;;;;5033567;28;20030;-75
2024/01/27 11:54:25;;;;;;;10.18;4.60;;;5.70;99.90;;;;;;5032502;28;20038;-77
2024/01/27 11:56:51;;;;;;;6.90;5.28;;;5.70;99.90;;;;;;5031936;28;20078;-77
2024/01/27 11:59:16;;;;;;;8.48;4.60;;;5.80;99.90;;;;;;5031571;28;20025;-77
2024/01/27 12:01:42;;;;;;;7.95;3.65;;;5.80;99.90;;;;;;5031749;28;20075;-77
2024/01/27 12:04:09;;;;;;;5.78;3.97;;;5.90;99.90;;;;;;5032079;28;20025;-78
2024/01/27 12:06:35;;;;;;;7.88;4.10;;;5.90;99.90;;;;;;5034249;28;20581;-77
2024/01/27 12:09:01;;;;;;;8.55;4.90;;;5.90;99.90;;;;;;5033518;28;20061;-78
2024/01/27 12:11:27;;;;;;;6.03;4.18;;;5.90;99.90;;;;;;5034988;28;20104;-78
2024/01/27 12:13:53;;;;;;;8.10;4.07;;;5.90;99.90;;;;;;5043675;28;20017;-78
2024/01/27 12:16:22;;;;;;;8.27;3.38;;;6.00;99.90;;;;;;5041204;28;20494;-78
2024/01/27 12:18:53;;;;;;;6.47;2.88;;;6.00;99.90;;;;;;5034521;28;20468;-78
2024/01/27 12:21:19;;;;;;;5.57;2.80;;;6.10;99.90;;;;;;5033607;28;20390;-78
2024/01/27 12:23:51;;;;;;;6.85;2.95;;;6.00;99.90;;;;;;5033535;28;20518;-78
2024/01/27 12:26:17;;;;;;;5.40;2.58;;;6.10;99.90;;;;;;5033651;28;20026;-78
2024/01/27 12:28:47;;;;;;;5.30;2.40;;;6.10;99.90;;;;;;5031215;28;20032;-78
2024/01/27 12:31:15;;;;;;;4.05;2.67;;;6.10;99.90;;;;;;5033503;28;20475;-79
2024/01/27 12:33:42;;;;;;;4.57;2.28;;;6.10;99.90;;;;;;5034612;28;20044;-78
2024/01/27 12:36:08;;;;;;;4.15;2.05;;;6.10;99.90;;;;;;5035080;28;20030;-78
2024/01/27 12:38:33;;;;;;;3.72;2.20;;;6.10;99.90;;;;;;5032313;28;20075;-77
2024/01/27 12:40:59;;;;;;;7.10;3.08;;;6.10;99.90;;;;;;5031030;28;20425;-77
2024/01/27 12:43:25;;;;;;;5.50;3.03;;;6.20;99.90;;;;;;5031640;28;20424;-78
2024/01/27 12:45:50;;;;;;;8.40;4.03;;;6.30;99.90;;;;;;5032525;28;20037;-77
2024/01/27 12:48:16;;;;;;;6.45;2.58;;;6.40;99.90;;;;;;5031452;28;20026;-77
2024/01/27 12:50:42;;;;;;;4.50;2.60;;;6.50;99.90;;;;;;5034373;28;20078;-78
2024/01/27 12:53:07;;;;;;;5.80;2.20;;;6.50;99.90;;;;;;5034140;28;20395;-78